This is the latest recevied weather packets stored in our database for station/object OE3AOG. If no packets are shown the sender has not sent any weather packets the latest 1 day(s).
| Time | Temp. | Humidity | Pressure | Rain* | Wind** | Luminosity | Snow |
|---|---|---|---|---|---|---|---|
| 1778093730 | 19.44° C | 52% | 1003.5 hPa | 0 mm | - | 0 W/m² | - |
| 1778093130 | 20° C | 51% | 1003.5 hPa | 0 mm | - | 0 W/m² | - |
| 1778090122 | 20.56° C | 50% | 1003 hPa | 0 mm | - | 12 W/m² | - |
| 1778089530 | 20.56° C | 49% | 1003 hPa | 0 mm | - | 17 W/m² | - |
| 1778088922 | 21.11° C | 48% | 1003 hPa | 0 mm | - | 22 W/m² | - |
| 1778086529 | 21.67° C | 46% | 1003.2 hPa | 0 mm | - | 52 W/m² | - |
| 1778085922 | 22.22° C | 45% | 1003.4 hPa | 0 mm | - | 59 W/m² | - |
| 1778076330 | 24.44° C | 37% | 1004 hPa | 0 mm | - | 491 W/m² | - |
| 1778074522 | 25° C | 36% | 1004 hPa | 0 mm | - | 539 W/m² | - |
| 1778073322 | 25.56° C | 35% | 1003.9 hPa | 0 mm | - | 580 W/m² | - |
| 1778072729 | 25° C | 36% | 1004 hPa | 0 mm | - | 403 W/m² | - |
| 1778070930 | 25° C | 34% | 1004.4 hPa | 0 mm | - | 380 W/m² | - |
| 1778070322 | 24.44° C | 35% | 1004.4 hPa | 0 mm | - | 322 W/m² | - |
| 1778069121 | 24.44° C | 35% | 1004.5 hPa | 0 mm | - | 267 W/m² | - |
| 1778068522 | 25° C | 35% | 1004.5 hPa | 0 mm | - | 321 W/m² | - |
| 1778067930 | 24.44° C | 35% | 1004.7 hPa | 0 mm | - | 580 W/m² | - |
| 1778066730 | 25° C | 33% | 1005 hPa | 0 mm | - | 546 W/m² | - |
| 1778065530 | 25° C | 33% | 1005.2 hPa | 0 mm | - | 753 W/m² | - |
| 1778064930 | 23.89° C | 33% | 1005.5 hPa | 0 mm | - | 728 W/m² | - |
| 1778064322 | 23.89° C | 32% | 1005.7 hPa | 0 mm | - | 710 W/m² | - |
| 1778063122 | 23.33° C | 40% | 1006.1 hPa | 0 mm | - | 698 W/m² | - |
| 1778060730 | 21.67° C | 45% | 1006.7 hPa | 0 mm | - | 252 W/m² | - |
| 1778059522 | 22.22° C | 44% | 1007 hPa | 0 mm | - | 270 W/m² | - |
| 1778057730 | 22.22° C | 43% | 1007.2 hPa | 0 mm | - | 589 W/m² | - |
| 1778057122 | 22.22° C | 41% | 1007.2 hPa | 0 mm | - | 591 W/m² | - |
* Rain latest hour (hover to see other rain measurements)
** Current wind speed in m/s (hover to see current wind gust speed)